createdAt,value
2019-04-04T00:01:04.646Z,99219.00
2019-04-04T00:03:37.756Z,99223.00
2019-04-04T00:06:09.347Z,99219.00
2019-04-04T00:08:41.006Z,99198.00
2019-04-04T00:11:13.229Z,99221.00
2019-04-04T00:13:46.426Z,99204.00
2019-04-04T00:16:18.126Z,99179.00
2019-04-04T00:18:49.727Z,99170.00
2019-04-04T00:21:22.326Z,99182.00
2019-04-04T00:23:53.874Z,99197.00
2019-04-04T00:26:25.383Z,99209.00
2019-04-04T00:28:57.005Z,99211.00
2019-04-04T00:31:28.459Z,99214.00
2019-04-04T00:34:00.014Z,99196.00
2019-04-04T00:36:33.874Z,99152.00
2019-04-04T00:39:14.334Z,99126.00
2019-04-04T00:41:46.509Z,99106.00
2019-04-04T00:44:18.247Z,99094.00
2019-04-04T00:46:49.718Z,99089.00
2019-04-04T00:49:21.171Z,99128.00
2019-04-04T00:51:53.580Z,99152.00
2019-04-04T00:54:25.034Z,99181.00
2019-04-04T00:56:56.422Z,99167.00
2019-04-04T00:59:29.866Z,99125.00
2019-04-04T01:02:02.137Z,99129.00
2019-04-04T01:04:33.858Z,99130.00
2019-04-04T01:07:05.723Z,99111.00
2019-04-04T01:09:37.222Z,99132.00
2019-04-04T01:12:08.724Z,99136.00
2019-04-04T01:14:40.170Z,99157.00
2019-04-04T01:17:11.603Z,99157.00
2019-04-04T01:19:43.082Z,99153.00
2019-04-04T01:22:14.533Z,99147.00
2019-04-04T01:24:46.007Z,99157.00
2019-04-04T01:27:17.492Z,99154.00
2019-04-04T01:29:48.950Z,99157.00
2019-04-04T01:32:20.372Z,99154.00
2019-04-04T01:34:52.633Z,99154.00
2019-04-04T01:37:26.911Z,99143.00
2019-04-04T01:39:57.448Z,99143.00
2019-04-04T01:42:28.846Z,99131.00
2019-04-04T01:45:00.282Z,99144.00
2019-04-04T01:47:31.682Z,99133.00
2019-04-04T01:50:04.289Z,99124.00
2019-04-04T01:52:35.653Z,99116.00
2019-04-04T01:55:07.162Z,99103.00
2019-04-04T01:57:39.387Z,99107.00
2019-04-04T02:00:14.756Z,99100.00
2019-04-04T02:02:45.356Z,99089.00
2019-04-04T02:05:16.866Z,99087.00
2019-04-04T02:07:49.561Z,99106.00
2019-04-04T02:10:21.060Z,99092.00
2019-04-04T02:12:52.512Z,99083.00
2019-04-04T02:15:23.978Z,99087.00
2019-04-04T02:17:55.408Z,99089.00
2019-04-04T02:20:27.527Z,99084.00
2019-04-04T02:23:01.244Z,99075.00
2019-04-04T02:25:34.073Z,99069.00
2019-04-04T02:28:06.945Z,99077.00
2019-04-04T02:30:38.398Z,99074.00
2019-04-04T02:33:09.898Z,99072.00
2019-04-04T02:35:43.698Z,99062.00
2019-04-04T02:38:14.525Z,99056.00
2019-04-04T02:40:46.048Z,99052.00
2019-04-04T02:43:17.556Z,99039.00
2019-04-04T02:45:49.029Z,99029.00
2019-04-04T02:48:23.170Z,99026.00
2019-04-04T02:50:53.609Z,99025.00
2019-04-04T02:53:25.000Z,99039.00
2019-04-04T02:55:56.443Z,99043.00
2019-04-04T02:58:27.897Z,99032.00
2019-04-04T03:01:00.480Z,99038.00
2019-04-04T03:03:33.459Z,99047.00
2019-04-04T03:06:04.917Z,99039.00
2019-04-04T03:08:37.695Z,99039.00
2019-04-04T03:11:09.462Z,99052.00
2019-04-04T03:13:40.884Z,99066.00
2019-04-04T03:16:12.308Z,99065.00
2019-04-04T03:18:43.726Z,99039.00
2019-04-04T03:21:15.244Z,99049.00
2019-04-04T03:23:46.646Z,99055.00
2019-04-04T03:26:20.089Z,99043.00
2019-04-04T03:28:51.285Z,99052.00
2019-04-04T03:31:22.766Z,99074.00
2019-04-04T03:33:54.196Z,99085.00
2019-04-04T03:36:25.701Z,99093.00
2019-04-04T03:38:57.137Z,99098.00
2019-04-04T03:41:30.623Z,99111.00
2019-04-04T03:44:01.880Z,99104.00
2019-04-04T03:46:38.378Z,99100.00
2019-04-04T03:49:06.418Z,99102.00
2019-04-04T03:51:38.298Z,99097.00
2019-04-04T03:54:13.962Z,99106.00
2019-04-04T03:56:45.391Z,99120.00
2019-04-04T03:59:16.786Z,99120.00
2019-04-04T04:01:48.220Z,99116.00
2019-04-04T04:04:19.616Z,99118.00
2019-04-04T04:06:51.099Z,99126.00
2019-04-04T04:09:25.812Z,99131.00
2019-04-04T04:11:55.660Z,99121.00
2019-04-04T04:14:27.071Z,99111.00
2019-04-04T04:16:58.541Z,99102.00
2019-04-04T04:19:31.387Z,99096.00
2019-04-04T04:22:04.056Z,99092.00
2019-04-04T04:24:35.439Z,99090.00
2019-04-04T04:27:06.865Z,99097.00
2019-04-04T04:29:38.392Z,99104.00
2019-04-04T04:32:09.908Z,99129.00
2019-04-04T04:34:41.366Z,99122.00
2019-04-04T04:37:12.961Z,99119.00
2019-04-04T04:39:44.397Z,99113.00
2019-04-04T04:42:15.902Z,99119.00
2019-04-04T04:44:47.287Z,99117.00
2019-04-04T04:47:22.995Z,99118.00
2019-04-04T04:49:55.112Z,99114.00
2019-04-04T04:52:25.017Z,99103.00
2019-04-04T04:54:56.393Z,99091.00
2019-04-04T04:57:29.927Z,99089.00
2019-04-04T05:00:00.941Z,99093.00
2019-04-04T05:02:32.457Z,99123.00
2019-04-04T05:05:04.125Z,99147.00
2019-04-04T05:07:38.455Z,99146.00
2019-04-04T05:10:09.956Z,99141.00
2019-04-04T05:12:41.370Z,99141.00
2019-04-04T05:15:12.777Z,99134.00
2019-04-04T05:17:44.247Z,99136.00
2019-04-04T05:20:15.658Z,99139.00
2019-04-04T05:22:54.428Z,99147.00
2019-04-04T05:25:26.288Z,99150.00
2019-04-04T05:27:58.054Z,99140.00
2019-04-04T05:30:29.765Z,99141.00
2019-04-04T05:33:01.679Z,99135.00
2019-04-04T05:35:33.483Z,99140.00
2019-04-04T05:38:07.894Z,99142.00
2019-04-04T05:40:39.425Z,99130.00
2019-04-04T05:43:10.987Z,99128.00
2019-04-04T05:45:44.845Z,99140.00
2019-04-04T05:48:15.569Z,99142.00
2019-04-04T05:50:46.955Z,99133.00
2019-04-04T05:53:21.308Z,99136.00
2019-04-04T05:55:51.748Z,99138.00
2019-04-04T05:58:23.153Z,99145.00
2019-04-04T06:00:57.607Z,99144.00
2019-04-04T06:03:27.968Z,99148.00
2019-04-04T06:06:01.327Z,99139.00
2019-04-04T06:08:32.586Z,99132.00
2019-04-04T06:11:04.000Z,99131.00
2019-04-04T06:13:35.498Z,99145.00
2019-04-04T06:16:06.972Z,99147.00
2019-04-04T06:18:38.406Z,99143.00
2019-04-04T06:21:09.852Z,99148.00
2019-04-04T06:23:41.418Z,99147.00
2019-04-04T06:26:12.835Z,99144.00
2019-04-04T06:28:45.045Z,99151.00
2019-04-04T06:31:16.595Z,99147.00
2019-04-04T06:33:48.158Z,99158.00
2019-04-04T06:36:19.622Z,99158.00
2019-04-04T06:38:52.205Z,99152.00
2019-04-04T06:41:24.327Z,99154.00
2019-04-04T06:43:55.788Z,99152.00
2019-04-04T06:46:27.240Z,99144.00
2019-04-04T06:48:58.780Z,99122.00
2019-04-04T06:51:30.227Z,99117.00
2019-04-04T06:54:01.806Z,99118.00
2019-04-04T06:56:33.312Z,99108.00
2019-04-04T06:59:04.865Z,99112.00
2019-04-04T07:01:36.378Z,99109.00
2019-04-04T07:04:07.930Z,99108.00
2019-04-04T07:06:41.716Z,99096.00
2019-04-04T07:09:13.572Z,99096.00
2019-04-04T07:11:45.174Z,99092.00
2019-04-04T07:14:16.672Z,99108.00
2019-04-04T07:16:49.230Z,99115.00
2019-04-04T07:19:20.716Z,99124.00
2019-04-04T07:21:52.210Z,99141.00
2019-04-04T07:24:24.268Z,99152.00
2019-04-04T07:26:55.844Z,99167.00
2019-04-04T07:29:27.282Z,99163.00
2019-04-04T07:31:58.753Z,99162.00
2019-04-04T07:34:30.204Z,99158.00
2019-04-04T07:37:01.662Z,99164.00
2019-04-04T07:39:33.136Z,99128.00
2019-04-04T07:42:04.684Z,99159.00
2019-04-04T07:44:36.222Z,99153.00
2019-04-04T07:47:07.938Z,99150.00
2019-04-04T07:49:40.281Z,99142.00
2019-04-04T07:52:11.872Z,99122.00
2019-04-04T07:54:43.306Z,99119.00
2019-04-04T07:57:14.710Z,99128.00
2019-04-04T07:59:46.176Z,99132.00
2019-04-04T08:02:17.594Z,99129.00
2019-04-04T08:04:49.162Z,99122.00
2019-04-04T08:07:20.741Z,99128.00
2019-04-04T08:09:52.237Z,99103.00
2019-04-04T08:12:23.736Z,99095.00
2019-04-04T08:14:55.281Z,99107.00
2019-04-04T08:17:27.820Z,99112.00
2019-04-04T08:20:00.094Z,99103.00
2019-04-04T08:22:31.935Z,99104.00
2019-04-04T08:25:03.633Z,99109.00
2019-04-04T08:27:35.125Z,99121.00
2019-04-04T08:30:08.475Z,99125.00
2019-04-04T08:32:40.069Z,99128.00
2019-04-04T08:35:11.847Z,99128.00
2019-04-04T08:37:43.448Z,99124.00
2019-04-04T08:40:15.254Z,99134.00
2019-04-04T08:42:46.770Z,99159.00
2019-04-04T08:45:18.478Z,99164.00
2019-04-04T08:47:49.955Z,99172.00
2019-04-04T08:50:21.631Z,99165.00
2019-04-04T08:52:53.068Z,99173.00
2019-04-04T08:55:24.661Z,99183.00
2019-04-04T08:57:56.275Z,99175.00
2019-04-04T09:00:27.800Z,99176.00
2019-04-04T09:02:59.460Z,99177.00
2019-04-04T09:05:31.037Z,99175.00
2019-04-04T09:08:02.738Z,99164.00
2019-04-04T09:10:34.369Z,99164.00
2019-04-04T09:13:06.069Z,99162.00
2019-04-04T09:15:37.535Z,99168.00
2019-04-04T09:18:12.044Z,99181.00
2019-04-04T09:20:43.561Z,99195.00
2019-04-04T09:23:15.371Z,99185.00
2019-04-04T09:25:47.055Z,99182.00
2019-04-04T09:28:20.767Z,99178.00
2019-04-04T09:30:52.409Z,99187.00
2019-04-04T09:33:23.981Z,99191.00
2019-04-04T09:35:55.812Z,99192.00
2019-04-04T09:38:29.179Z,99187.00
2019-04-04T09:41:01.261Z,99180.00
2019-04-04T09:43:51.833Z,99175.00
2019-04-04T09:46:23.314Z,99177.00
2019-04-04T09:48:56.231Z,99176.00
2019-04-04T09:51:28.035Z,99176.00
2019-04-04T09:53:59.618Z,99172.00
2019-04-04T09:56:31.170Z,99175.00
2019-04-04T09:59:02.794Z,99172.00
2019-04-04T10:01:35.991Z,99165.00
2019-04-04T10:04:09.980Z,99166.00
2019-04-04T10:06:46.106Z,99158.00
2019-04-04T10:09:17.642Z,99155.00
2019-04-04T10:11:49.256Z,99159.00
2019-04-04T10:14:23.218Z,99162.00
2019-04-04T10:16:54.861Z,99166.00
2019-04-04T10:19:26.727Z,99160.00
2019-04-04T10:21:58.559Z,99166.00
2019-04-04T10:24:30.043Z,99175.00
2019-04-04T10:27:01.515Z,99175.00
2019-04-04T10:29:33.063Z,99166.00
2019-04-04T10:32:04.871Z,99160.00
2019-04-04T10:34:36.282Z,99172.00
2019-04-04T10:37:07.797Z,99171.00
2019-04-04T10:39:39.451Z,99169.00
2019-04-04T10:42:12.046Z,99164.00
2019-04-04T10:44:43.587Z,99179.00
2019-04-04T10:47:15.381Z,99167.00
2019-04-04T10:49:48.130Z,99166.00
2019-04-04T10:52:20.979Z,99162.00
2019-04-04T10:54:54.093Z,99141.00
2019-04-04T10:57:25.709Z,99159.00
2019-04-04T10:59:58.347Z,99153.00
2019-04-04T11:02:30.019Z,99154.00
2019-04-04T11:05:02.359Z,99157.00
2019-04-04T11:07:35.182Z,99162.00
2019-04-04T11:10:07.878Z,99167.00
2019-04-04T11:12:39.593Z,99170.00
2019-04-04T11:15:11.078Z,99166.00
2019-04-04T11:17:43.000Z,99163.00
2019-04-04T11:20:14.625Z,99161.00
2019-04-04T11:22:46.120Z,99152.00
2019-04-04T11:25:17.826Z,99152.00
2019-04-04T11:27:49.394Z,99157.00
2019-04-04T11:30:23.602Z,99163.00
2019-04-04T11:32:55.077Z,99158.00
2019-04-04T11:35:26.500Z,99162.00
2019-04-04T11:37:58.064Z,99161.00
2019-04-04T11:40:29.646Z,99171.00
2019-04-04T11:43:01.223Z,99182.00
2019-04-04T11:45:32.636Z,99190.00
2019-04-04T11:48:04.173Z,99185.00
2019-04-04T11:50:35.614Z,99184.00
2019-04-04T11:53:07.199Z,99190.00
2019-04-04T11:55:39.248Z,99177.00
2019-04-04T11:58:10.844Z,99183.00
2019-04-04T12:00:44.126Z,99193.00
2019-04-04T12:03:15.602Z,99197.00
2019-04-04T12:05:47.153Z,99207.00
2019-04-04T12:08:18.799Z,99203.00
2019-04-04T12:10:50.376Z,99208.00
2019-04-04T12:13:22.078Z,99205.00
2019-04-04T12:15:53.538Z,99212.00
2019-04-04T12:18:25.063Z,99221.00
2019-04-04T12:20:56.597Z,99213.00
2019-04-04T12:23:28.062Z,99212.00
2019-04-04T12:25:59.490Z,99216.00
2019-04-04T12:28:30.905Z,99220.00
2019-04-04T12:31:02.337Z,99203.00
2019-04-04T12:33:33.969Z,99205.00
2019-04-04T12:36:05.650Z,99210.00
2019-04-04T12:38:37.201Z,99206.00
2019-04-04T12:41:08.627Z,99208.00
2019-04-04T12:43:40.200Z,99202.00
2019-04-04T12:46:11.872Z,99199.00
2019-04-04T12:48:43.388Z,99204.00
2019-04-04T12:51:14.854Z,99194.00
2019-04-04T12:53:46.490Z,99197.00
2019-04-04T12:56:18.001Z,99185.00
2019-04-04T12:58:49.556Z,99180.00
2019-04-04T13:01:21.603Z,99189.00
2019-04-04T13:03:53.061Z,99186.00
2019-04-04T13:06:24.749Z,99185.00
2019-04-04T13:08:56.175Z,99183.00
2019-04-04T13:11:27.616Z,99186.00
2019-04-04T13:13:59.106Z,99184.00
2019-04-04T13:16:30.595Z,99183.00
2019-04-04T13:19:02.143Z,99201.00
2019-04-04T13:21:33.640Z,99202.00
2019-04-04T13:24:05.110Z,99204.00
2019-04-04T13:26:36.556Z,99203.00
2019-04-04T13:29:08.167Z,99207.00
2019-04-04T13:31:39.575Z,99204.00
2019-04-04T13:34:10.984Z,99202.00
2019-04-04T13:36:42.426Z,99208.00
2019-04-04T13:39:13.866Z,99208.00
2019-04-04T13:41:45.362Z,99213.00
2019-04-04T13:44:16.826Z,99209.00
2019-04-04T13:46:48.301Z,99214.00
2019-04-04T13:49:19.928Z,99206.00
2019-04-04T13:51:53.176Z,99211.00
2019-04-04T13:54:24.774Z,99212.00
2019-04-04T13:56:56.356Z,99208.00
2019-04-04T13:59:27.797Z,99213.00
2019-04-04T14:01:59.334Z,99214.00
2019-04-04T14:04:31.030Z,99199.00
2019-04-04T14:07:03.033Z,99197.00
2019-04-04T14:09:34.910Z,99201.00
2019-04-04T14:12:29.207Z,99195.00
2019-04-04T14:14:59.906Z,99197.00
2019-04-04T14:17:46.782Z,99194.00
2019-04-04T14:20:18.572Z,99196.00
2019-04-04T14:22:51.216Z,99188.00
2019-04-04T14:25:23.296Z,99202.00
2019-04-04T14:27:57.885Z,99200.00
2019-04-04T14:30:40.136Z,99193.00
2019-04-04T14:33:23.383Z,99189.00
2019-04-04T14:35:55.000Z,99189.00
2019-04-04T14:38:26.642Z,99184.00
2019-04-04T14:41:10.199Z,99187.00
2019-04-04T14:43:31.490Z,99194.00
2019-04-04T14:46:32.886Z,99188.00
2019-04-04T14:49:04.615Z,99187.00
2019-04-04T14:51:42.303Z,99186.00
2019-04-04T14:54:19.391Z,99183.00
2019-04-04T14:56:53.625Z,99188.00
2019-04-04T14:59:29.025Z,99168.00
2019-04-04T15:02:00.501Z,99162.00
2019-04-04T15:04:32.797Z,99162.00
2019-04-04T15:07:04.551Z,99159.00
2019-04-04T15:09:37.113Z,99151.00
2019-04-04T15:12:08.670Z,99155.00
2019-04-04T15:14:41.609Z,99160.00
2019-04-04T15:17:13.473Z,99160.00
2019-04-04T15:19:47.443Z,99160.00
2019-04-04T15:22:18.927Z,99162.00
2019-04-04T15:24:50.398Z,99162.00
2019-04-04T15:27:21.905Z,99162.00
2019-04-04T15:29:53.393Z,99166.00
2019-04-04T15:32:24.915Z,99159.00
2019-04-04T15:34:56.481Z,99160.00
2019-04-04T15:37:37.777Z,99159.00
2019-04-04T15:40:10.065Z,99167.00
2019-04-04T15:42:46.804Z,99172.00
2019-04-04T15:45:20.285Z,99172.00
2019-04-04T15:47:53.608Z,99180.00
2019-04-04T15:50:25.200Z,99179.00
2019-04-04T15:53:08.907Z,99175.00
2019-04-04T15:55:40.697Z,99178.00
2019-04-04T15:58:12.270Z,99175.00
2019-04-04T16:00:47.707Z,99184.00
2019-04-04T16:03:19.213Z,99187.00
2019-04-04T16:05:50.846Z,99179.00
2019-04-04T16:08:22.381Z,99177.00
2019-04-04T16:10:59.917Z,99173.00
2019-04-04T16:13:31.901Z,99176.00
2019-04-04T16:16:04.536Z,99171.00
2019-04-04T16:18:37.733Z,99176.00
2019-04-04T16:21:08.683Z,99175.00
2019-04-04T16:23:40.345Z,99177.00
2019-04-04T16:26:17.376Z,99178.00
2019-04-04T16:28:50.735Z,99178.00
2019-04-04T16:31:23.939Z,99192.00
2019-04-04T16:33:55.707Z,99192.00
2019-04-04T16:36:27.259Z,99194.00
2019-04-04T16:38:58.751Z,99202.00
2019-04-04T16:41:33.797Z,99208.00
2019-04-04T16:44:05.343Z,99200.00
2019-04-04T16:46:36.837Z,99213.00
2019-04-04T16:49:08.355Z,99213.00
2019-04-04T16:51:40.032Z,99221.00
2019-04-04T16:54:11.623Z,99212.00
2019-04-04T16:56:43.149Z,99224.00
2019-04-04T16:59:14.643Z,99219.00
2019-04-04T17:01:46.225Z,99210.00
2019-04-04T17:04:17.762Z,99226.00
2019-04-04T17:06:49.367Z,99230.00
2019-04-04T17:09:20.942Z,99226.00
2019-04-04T17:11:52.535Z,99237.00
2019-04-04T17:14:24.092Z,99253.00
2019-04-04T17:16:55.622Z,99255.00
2019-04-04T17:20:16.267Z,99222.00
2019-04-04T17:23:32.686Z,99268.00
2019-04-04T17:26:04.612Z,99270.00
2019-04-04T17:28:36.411Z,99278.00
2019-04-04T17:31:08.462Z,99282.00
2019-04-04T17:33:42.327Z,99287.00
2019-04-04T17:36:14.540Z,99289.00
2019-04-04T17:38:46.311Z,99298.00
2019-04-04T17:41:17.763Z,99299.00
2019-04-04T17:43:49.546Z,99304.00
2019-04-04T17:46:21.029Z,99314.00
2019-04-04T17:48:52.800Z,99322.00
2019-04-04T17:51:25.375Z,99326.00
2019-04-04T17:54:00.432Z,99330.00
2019-04-04T17:56:31.992Z,99337.00
2019-04-04T17:59:03.654Z,99335.00
2019-04-04T18:01:35.164Z,99335.00
2019-04-04T18:04:06.830Z,99334.00
2019-04-04T18:06:40.702Z,99333.00
2019-04-04T18:09:12.267Z,99347.00
2019-04-04T18:11:48.417Z,99353.00
2019-04-04T18:14:20.102Z,99350.00
2019-04-04T18:16:51.602Z,99358.00
2019-04-04T18:19:23.173Z,99371.00
2019-04-04T18:21:54.841Z,99378.00
2019-04-04T18:24:26.839Z,99384.00
2019-04-04T18:26:58.500Z,99398.00
2019-04-04T18:29:30.250Z,99403.00
2019-04-04T18:32:01.954Z,99407.00
2019-04-04T18:34:33.693Z,99404.00
2019-04-04T18:37:05.845Z,99418.00
2019-04-04T18:40:05.218Z,99418.00
2019-04-04T18:42:36.786Z,99426.00
2019-04-04T18:45:09.012Z,99419.00
2019-04-04T18:47:40.558Z,99411.00
2019-04-04T18:50:12.905Z,99424.00
2019-04-04T18:52:44.571Z,99415.00
2019-04-04T18:55:24.323Z,99403.00
2019-04-04T18:57:58.579Z,99413.00
2019-04-04T19:00:30.339Z,99411.00
2019-04-04T19:03:01.930Z,99404.00
2019-04-04T19:05:33.537Z,99399.00
2019-04-04T19:08:06.568Z,99396.00
2019-04-04T19:10:38.431Z,99394.00
2019-04-04T19:13:10.183Z,99400.00
2019-04-04T19:15:41.801Z,99392.00
2019-04-04T19:18:14.511Z,99395.00
2019-04-04T19:20:46.467Z,99392.00
2019-04-04T19:23:18.032Z,99387.00
2019-04-04T19:25:49.924Z,99383.00
2019-04-04T19:28:21.649Z,99387.00
2019-04-04T19:30:53.206Z,99395.00
2019-04-04T19:33:24.772Z,99387.00
2019-04-04T19:35:56.361Z,99385.00
2019-04-04T19:38:29.532Z,99382.00
2019-04-04T19:41:01.144Z,99381.00
2019-04-04T19:43:32.909Z,99376.00
2019-04-04T19:46:04.885Z,99373.00
2019-04-04T19:48:36.519Z,99375.00
2019-04-04T19:51:09.230Z,99377.00
2019-04-04T19:53:41.036Z,99378.00
2019-04-04T19:56:12.646Z,99379.00
2019-04-04T19:58:45.479Z,99389.00
2019-04-04T20:01:18.212Z,99385.00
2019-04-04T20:03:49.862Z,99397.00
2019-04-04T20:06:21.498Z,99392.00
2019-04-04T20:08:53.743Z,99391.00
2019-04-04T20:11:25.406Z,99400.00
2019-04-04T20:13:57.169Z,99393.00
2019-04-04T20:16:30.015Z,99393.00
2019-04-04T20:19:01.542Z,99387.00
2019-04-04T20:21:34.548Z,99387.00
2019-04-04T20:24:06.189Z,99392.00
2019-04-04T20:26:37.666Z,99391.00
2019-04-04T20:29:09.187Z,99391.00
2019-04-04T20:31:40.671Z,99394.00
2019-04-04T20:34:12.119Z,99385.00
2019-04-04T20:36:46.517Z,99379.00
2019-04-04T20:39:18.063Z,99381.00
2019-04-04T20:41:49.584Z,99375.00
2019-04-04T20:44:21.051Z,99374.00
2019-04-04T20:46:52.870Z,99378.00
2019-04-04T20:49:24.527Z,99381.00
2019-04-04T20:51:56.034Z,99378.00
2019-04-04T20:54:27.579Z,99387.00
2019-04-04T20:56:59.073Z,99396.00
2019-04-04T20:59:30.611Z,99391.00
2019-04-04T21:02:02.053Z,99389.00
2019-04-04T21:04:34.425Z,99387.00
2019-04-04T21:07:06.078Z,99384.00
2019-04-04T21:09:37.538Z,99381.00
2019-04-04T21:12:11.327Z,99375.00
2019-04-04T21:14:42.433Z,99383.00
2019-04-04T21:17:14.119Z,99385.00
2019-04-04T21:19:45.616Z,99394.00
2019-04-04T21:22:26.820Z,99400.00
2019-04-04T21:24:50.439Z,99411.00
2019-04-04T21:27:22.293Z,99405.00
2019-04-04T21:29:53.734Z,99411.00
2019-04-04T21:32:25.264Z,99416.00
2019-04-04T21:34:56.824Z,99412.00
2019-04-04T21:37:28.461Z,99414.00
2019-04-04T21:40:00.141Z,99409.00
2019-04-04T21:42:31.630Z,99411.00
2019-04-04T21:45:03.233Z,99404.00
2019-04-04T21:47:34.873Z,99404.00
2019-04-04T21:50:07.325Z,99407.00
2019-04-04T21:52:39.080Z,99398.00
2019-04-04T21:55:23.789Z,99417.00
2019-04-04T21:57:58.436Z,99420.00
2019-04-04T22:00:37.252Z,99430.00
2019-04-04T22:03:10.363Z,99437.00
2019-04-04T22:05:41.899Z,99435.00
2019-04-04T22:08:13.475Z,99428.00
2019-04-04T22:10:45.147Z,99432.00
2019-04-04T22:13:16.761Z,99434.00
2019-04-04T22:15:48.301Z,99432.00
2019-04-04T22:18:19.881Z,99441.00
2019-04-04T22:20:51.432Z,99438.00
2019-04-04T22:23:22.911Z,99458.00
2019-04-04T22:25:54.465Z,99442.00
2019-04-04T22:28:25.967Z,99448.00
2019-04-04T22:30:57.491Z,99446.00
2019-04-04T22:33:30.055Z,99442.00
2019-04-04T22:36:01.566Z,99458.00
2019-04-04T22:38:33.083Z,99464.00
2019-04-04T22:41:04.725Z,99474.00
2019-04-04T22:43:36.203Z,99475.00
2019-04-04T22:46:07.737Z,99477.00
2019-04-04T22:48:39.307Z,99482.00
2019-04-04T22:51:10.761Z,99477.00
2019-04-04T22:53:42.302Z,99490.00
2019-04-04T22:56:13.786Z,99474.00
2019-04-04T22:58:45.300Z,99468.00
2019-04-04T23:01:17.077Z,99485.00
2019-04-04T23:03:48.595Z,99492.00
2019-04-04T23:06:20.153Z,99481.00
2019-04-04T23:08:51.655Z,99482.00
2019-04-04T23:11:23.072Z,99485.00
2019-04-04T23:13:54.561Z,99486.00
2019-04-04T23:16:26.016Z,99493.00
2019-04-04T23:18:57.524Z,99484.00
2019-04-04T23:21:29.025Z,99483.00
2019-04-04T23:24:00.596Z,99489.00
2019-04-04T23:26:32.077Z,99493.00
2019-04-04T23:29:03.510Z,99485.00
2019-04-04T23:31:35.043Z,99483.00
2019-04-04T23:34:06.515Z,99486.00
2019-04-04T23:36:38.045Z,99478.00
2019-04-04T23:39:09.752Z,99477.00
2019-04-04T23:41:41.184Z,99483.00
2019-04-04T23:44:12.766Z,99474.00
2019-04-04T23:46:44.259Z,99479.00
2019-04-04T23:49:17.301Z,99479.00
2019-04-04T23:51:48.836Z,99490.00
2019-04-04T23:54:20.279Z,99483.00
2019-04-04T23:56:52.000Z,99481.00
2019-04-04T23:59:23.519Z,99496.00
